Flight Track Log - Related Links

Times and Time Zones

All times are in EDT time to prevent confusion due to time zone crossing. See the N777HF flight status page for this flight to view local times or setup timezone preferences in your user account.

Time Position Orientation Groundspeed Altitude Reporting Facility
EDT Latitude Longitude Course Direction KTS MPH feet Rate Location/Type
Sat 08:31:00 PM 39.2631 -120.1805 209° Southwest  Level Estimated
Sat 08:32:00 PM 39.2061 -120.2213 209° Southwest  Level Estimated
Sat 08:33:00 PM 39.1492 -120.2620 209° Southwest  Level Estimated
Sat 08:33:48 PM 39.0136 -120.2733 211° Southwest 230 265 16,500  Level Oakland Center
Sat 08:34:00 PM 39.0922 -120.3027 209° Southwest  Level Estimated
Sat 08:34:49 PM 38.9514 -120.3164 208° Southwest 251 289 16,500  Level Oakland Center
Sat 08:35:00 PM 39.0352 -120.3434 209° Southwest  Level Estimated
Sat 08:35:50 PM 38.8897 -120.3564 207° Southwest 250 288 16,500  Level Oakland Center
Sat 08:36:00 PM 38.9782 -120.3839 209° Southwest  Level Estimated
Sat 08:36:51 PM 38.8317 -120.4042 213° Southwest 249 287 16,500  Level Oakland Center
Sat 08:37:00 PM 38.9211 -120.4244 209° Southwest  Level Estimated
Sat 08:37:52 PM 38.7728 -120.4469 210° Southwest 244 281 16,500  Level Oakland Center
Sat 08:38:00 PM 38.8641 -120.4648 209° Southwest  Level Estimated
Sat 08:38:53 PM 38.7092 -120.4817 203° Southwest 247 284 16,500  Level Oakland Center
Sat 08:39:54 PM 38.6328 -120.5250 204° Southwest 249 287 16,500  Level Oakland Center
Sat 08:40:55 PM 38.5697 -120.5592 203° Southwest 246 283 16,500  Level Oakland Center
Sat 08:41:56 PM 38.5067 -120.5958 204° Southwest 248 285 16,500  Level Oakland Center
Sat 08:42:58 PM 38.4433 -120.6317 204° Southwest 249 287 16,500  Level Oakland Center
Sat 08:43:59 PM 38.3803 -120.6664 203° Southwest 246 283 16,500  Level Oakland Center
Sat 08:45:00 PM 38.3164 -120.7019 204° Southwest 249 287 16,500  Level Oakland Center
Sat 08:46:01 PM 38.2531 -120.7369 203° Southwest 248 285 16,500  Level Oakland Center
Sat 08:47:02 PM 38.1886 -120.7733 204° Southwest 251 289 16,500  Level Oakland Center
Sat 08:48:03 PM 38.1258 -120.8081 204° Southwest 247 284 16,500  Level Oakland Center
Sat 08:49:04 PM 38.0611 -120.8431 203° Southwest 249 287 16,500  Level Oakland Center
Sat 08:50:05 PM 37.9975 -120.8778 203° Southwest 249 287 16,500  Level Oakland Center
Sat 08:51:06 PM 37.9336 -120.9142 204° Southwest 251 289 16,500  Level Oakland Center
Sat 08:52:07 PM 37.8692 -120.9481 203° Southwest 250 288 16,500  Level Oakland Center
Sat 08:53:08 PM 37.8047 -120.9844 204° Southwest 252 290 16,500  Level Oakland Center
Sat 08:54:09 PM 37.7403 -121.0194 203° Southwest 252 290 16,500  Level Oakland Center
Sat 08:55:09 PM 37.6667 -121.0667 207° Southwest 256 295 16,500  Level Northern Cal TRACON
Sat 08:56:09 PM 37.6000 -121.1000 202° Southwest 251 289 16,500  Level Northern Cal TRACON
Sat 08:57:14 PM 37.5333 -121.1333 202° Southwest 252 290 16,500  Level Northern Cal TRACON
Sat 08:58:14 PM 37.4667 -121.1667 202° Southwest 255 293 16,500  Level Northern Cal TRACON
Sat 08:59:14 PM 37.4000 -121.2167 211° Southwest 253 291 16,500 -148 Level Northern Cal TRACON
Sat 09:00:16 PM 37.3394 -121.2386 196° South 255 293 16,200 -878 Descending Oakland Center
Sat 09:01:17 PM 37.2689 -121.2775 204° Southwest 271 312 14,700 -1,525 Descending Oakland Center
Sat 09:02:18 PM 37.1967 -121.3158 203° Southwest 281 323 13,100 -1,525 Descending Oakland Center
Sat 09:03:19 PM 37.1253 -121.3547 203° Southwest 279 321 11,600 -1,230 Descending Oakland Center
Sat 09:04:20 PM 37.0544 -121.3919 203° Southwest 268 308 10,600 -836 Descending Oakland Center
Sat 09:05:21 PM 36.9944 -121.4292 206° Southwest 247 284 9,900 -541 Descending Oakland Center
Sat 09:06:22 PM 36.9372 -121.4714 211° Southwest 245 282 9,500 -1,179 Descending Oakland Center
Sat 09:08:14 PM 36.8667 -121.6167 239° Southwest 208 239 6,500 -1,047 Descending Northern Cal TRACON
Sat 09:09:14 PM 36.8333 -121.6667 230° Southwest 211 243 6,500 -550 Level Northern Cal TRACON
Sat 09:10:14 PM 36.8000 -121.7333 238° Southwest 225 259 5,400 -1,357 Descending Northern Cal TRACON
Sat 09:11:09 PM 36.7500 -121.7833 219° Southwest 225 259 3,900 -1,140 Descending Northern Cal TRACON
Sat 09:12:15 PM 36.7333 -121.8500 253° West 194 223 3,100 -429 Descending Northern Cal TRACON
Sat 09:13:15 PM 36.7667 -121.8833 321° Northwest 158 182 3,000 -350 Descending Northern Cal TRACON
Sat 09:14:15 PM 36.8000 -121.8667 22° Northeast 152 175 2,400 -353 Descending Northern Cal TRACON
Sat 09:15:14 PM 36.8500 -121.8667 360° North 137 158 2,300 -403 Descending Northern Cal TRACON
Sat 09:16:14 PM 36.8667 -121.8500 39° Northeast 121 139 1,600 -645 Descending Northern Cal TRACON
Sat 09:17:15 PM 36.9000 -121.8167 39° Northeast 127 146 1,000 -645 Descending Northern Cal TRACON
Sat 09:18:15 PM 36.9333 -121.8000 22° Northeast 119 137 300 -350 Descending Northern Cal TRACON
Sat 09:19:15 PM 36.9500 -121.7667 58° Northeast 118 136 300  Level Northern Cal TRACON
Sat 09:21:00 PM 36.9333 -121.7833 219° Southwest  Level FlightAware Approximate
Sat 09:28:00 PM 36.9357 -121.7896 219° Southwest  Level Estimated
Sat 09:29:00 PM 36.9333 -121.7833 219° Southwest  Level FlightAware Approximate
Sat 09:30:00 PM 36.9357 -121.7896 219° Southwest  Level Estimated
Sat 09:31:00 PM 36.9333 -121.7833 219° Southwest  Level FlightAware Approximate
Sat 09:32:00 PM 36.9357 -121.7896 219° Southwest  Level Estimated
Sat 09:33:00 PM 36.9333 -121.7833 219° Southwest  Level FlightAware Approximate
Sat 09:34:00 PM 36.9357 -121.7896 219° Southwest  Level Estimated
Sat 09:35:00 PM 36.9333 -121.7833 219° Southwest  Level FlightAware Approximate

Login

Don't have an account? Register now (free) for customized features, flight alerts, and more!